Time;durP1;ratioP1;P1;durP2;ratioP2;P2;SDS_P1;SDS_P2;PMS_P1;PMS_P2;Temp;Humidity;BMP_temperature;BMP_pressure;BME280_temperature;BME280_humidity;BME280_pressure;Samples;Min_cycle;Max_cycle;Signal;HPM_P1;HPM_P2
2022/07/19 00:02:00;;;;;;;3.35;2.33;;;18.00;77.50;;;;;;5003319;28;20395;-32
2022/07/19 00:04:26;;;;;;;5.43;2.50;;;18.00;78.00;;;;;;5005084;28;20026;-32
2022/07/19 00:06:54;;;;;;;3.20;2.53;;;18.10;78.10;;;;;;5000925;28;20034;-31
2022/07/19 00:09:20;;;;;;;;;;;18.00;77.40;;;;;;5003194;28;20124;-31
2022/07/19 00:11:46;;;;;;;3.28;2.30;;;17.90;77.60;;;;;;5003960;28;20000;-31
2022/07/19 00:14:11;;;;;;;5.00;2.50;;;17.90;81.20;;;;;;5005208;28;20030;-31
2022/07/19 00:16:37;;;;;;;4.80;2.40;;;17.70;85.60;;;;;;5003759;28;20141;-32
2022/07/19 00:19:03;;;;;;;3.10;2.78;;;17.30;90.00;;;;;;5003786;28;20018;-32
2022/07/19 00:21:28;;;;;;;2.67;2.40;;;17.00;92.10;;;;;;5002548;28;20026;-32
2022/07/19 00:23:54;;;;;;;2.83;2.40;;;16.80;91.70;;;;;;5000064;28;20030;-31
2022/07/19 00:26:19;;;;;;;3.25;2.20;;;17.00;89.80;;;;;;5002053;28;20058;-32
2022/07/19 00:28:45;;;;;;;4.18;2.42;;;17.20;87.70;;;;;;5003017;28;20041;-31
2022/07/19 00:31:11;;;;;;;2.33;2.00;;;17.30;85.50;;;;;;5000952;28;20116;-31
2022/07/19 00:33:36;;;;;;;2.92;2.22;;;17.20;85.20;;;;;;5002401;28;20029;-32
2022/07/19 00:36:02;;;;;;;2.53;2.33;;;17.30;85.50;;;;;;5003945;28;21302;-32
2022/07/19 00:38:28;;;;;;;3.03;2.50;;;17.30;85.60;;;;;;5005035;28;20398;-32
2022/07/19 00:40:53;;;;;;;4.50;2.38;;;17.40;84.20;;;;;;4997433;28;20034;-31
2022/07/19 00:43:19;;;;;;;2.50;2.30;;;17.40;84.90;;;;;;5006409;28;20041;-32
2022/07/19 00:45:45;;;;;;;5.25;2.50;;;17.40;83.20;;;;;;5004371;28;20018;-31
2022/07/19 00:48:10;;;;;;;2.38;2.17;;;17.40;82.70;;;;;;5000226;28;20065;-31
2022/07/19 00:50:36;;;;;;;3.22;2.70;;;17.40;82.60;;;;;;5003809;28;20096;-31
2022/07/19 00:53:04;;;;;;;2.97;2.63;;;17.40;83.40;;;;;;5000430;28;20049;-32
2022/07/19 00:55:32;;;;;;;3.35;2.83;;;17.30;84.00;;;;;;5003351;28;20038;-31
2022/07/19 00:57:59;;;;;;;4.55;3.03;;;17.20;84.40;;;;;;5002878;28;20645;-32
2022/07/19 01:00:26;;;;;;;4.78;3.38;;;17.10;84.40;;;;;;5000332;28;20029;-37
2022/07/19 01:02:52;;;;;;;4.18;2.47;;;17.10;88.30;;;;;;5002887;28;20030;-38
2022/07/19 01:05:19;;;;;;;2.92;2.63;;;17.00;90.20;;;;;;5001076;28;20097;-38
2022/07/19 01:07:45;;;;;;;3.10;2.80;;;17.00;85.70;;;;;;5002969;28;20044;-35
2022/07/19 01:10:13;;;;;;;4.05;2.40;;;17.00;85.30;;;;;;5002059;28;20529;-38
2022/07/19 01:12:39;;;;;;;4.80;2.78;;;17.00;86.30;;;;;;5001566;28;20040;-39
2022/07/19 01:15:15;;;;;;;3.42;2.42;;;17.00;84.40;;;;;;5000628;28;20227;-36
2022/07/19 01:17:41;;;;;;;5.25;2.38;;;17.00;83.80;;;;;;5001593;28;20026;-36
2022/07/19 01:20:07;;;;;;;3.85;2.50;;;16.90;86.60;;;;;;4998493;28;20037;-39
2022/07/19 01:22:33;;;;;;;2.67;2.47;;;16.80;89.10;;;;;;5002719;28;20406;-37
2022/07/19 01:24:59;;;;;;;3.00;2.70;;;16.80;88.50;;;;;;5003252;28;20022;-39
2022/07/19 01:27:25;;;;;;;2.50;2.30;;;16.80;87.90;;;;;;5004097;28;20049;-36
2022/07/19 01:29:50;;;;;;;2.70;2.50;;;16.80;86.00;;;;;;5003731;28;20510;-35
2022/07/19 01:32:16;;;;;;;3.42;2.80;;;16.80;86.10;;;;;;5000941;28;20095;-39
2022/07/19 01:34:41;;;;;;;2.38;2.17;;;16.80;85.40;;;;;;5004459;28;20037;-38
2022/07/19 01:37:07;;;;;;;2.63;2.42;;;16.70;87.20;;;;;;5002061;28;20037;-38
2022/07/19 01:39:32;;;;;;;2.72;2.30;;;16.70;88.00;;;;;;5004855;28;20847;-39
2022/07/19 01:41:58;;;;;;;3.03;2.72;;;16.50;89.00;;;;;;5006753;28;20144;-38
2022/07/19 01:44:24;;;;;;;3.15;2.55;;;16.20;91.60;;;;;;5003030;28;20072;-36
2022/07/19 01:46:50;;;;;;;6.28;2.80;;;15.90;92.10;;;;;;5003349;28;20057;-37
2022/07/19 01:49:15;;;;;;;2.90;2.50;;;15.90;92.00;;;;;;5004232;28;20091;-38
2022/07/19 01:51:41;;;;;;;3.30;2.47;;;16.00;91.10;;;;;;5002050;28;20084;-39
2022/07/19 01:54:06;;;;;;;3.42;3.00;;;16.10;91.20;;;;;;4985066;28;21021;-39
2022/07/19 01:56:32;;;;;;;5.80;3.30;;;16.10;91.50;;;;;;4987339;28;20034;-36
2022/07/19 01:58:58;;;;;;;3.95;2.80;;;16.20;91.30;;;;;;4983684;28;20126;-39
2022/07/19 02:01:23;;;;;;;3.00;2.80;;;16.20;91.00;;;;;;5001886;28;20045;-38
2022/07/19 02:03:49;;;;;;;5.03;2.65;;;16.30;90.90;;;;;;4986416;28;20084;-36
2022/07/19 02:06:15;;;;;;;3.78;2.72;;;16.20;91.50;;;;;;4982767;28;20030;-39
2022/07/19 02:08:41;;;;;;;2.80;2.60;;;16.20;91.60;;;;;;4987345;28;20030;-38
2022/07/19 02:13:51;;;;;;;4.25;2.83;;;16.10;91.70;;;;;;4985880;28;20038;-38
2022/07/19 02:16:17;;;;;;;3.72;2.63;;;16.10;92.20;;;;;;4987159;28;20050;-39
2022/07/19 02:18:43;;;;;;;2.97;2.63;;;16.00;91.80;;;;;;4984083;28;20034;-38
2022/07/19 02:21:08;;;;;;;4.65;2.63;;;16.00;94.50;;;;;;4986861;28;20062;-39
2022/07/19 02:23:34;;;;;;;3.00;2.30;;;16.00;92.20;;;;;;4987474;28;20041;-39
2022/07/19 02:26:00;;;;;;;5.35;2.88;;;16.00;92.50;;;;;;4984527;28;20037;-37
2022/07/19 02:28:26;;;;;;;5.18;2.70;;;16.00;92.50;;;;;;5000298;28;20125;-37
2022/07/19 02:30:51;;;;;;;3.42;3.05;;;16.00;92.50;;;;;;4983905;28;20040;-38
2022/07/19 02:33:17;;;;;;;4.72;2.80;;;16.00;93.00;;;;;;4983880;28;20046;-36
2022/07/19 02:35:42;;;;;;;3.63;2.42;;;15.90;92.70;;;;;;4986662;28;20034;-39
2022/07/19 02:38:08;;;;;;;3.53;3.10;;;15.80;92.60;;;;;;4985806;28;20034;-37
2022/07/19 02:40:34;;;;;;;3.40;2.50;;;15.80;91.50;;;;;;4984898;28;20156;-39
2022/07/19 02:42:59;;;;;;;3.72;2.88;;;15.70;91.30;;;;;;4986188;28;20498;-38
2022/07/19 02:45:25;;;;;;;2.58;2.38;;;15.60;91.90;;;;;;4983534;28;20029;-37
2022/07/19 02:47:50;;;;;;;4.32;2.63;;;15.50;92.10;;;;;;4983243;28;20034;-39
2022/07/19 02:50:16;;;;;;;2.83;2.60;;;15.60;92.70;;;;;;4985042;28;20026;-39
2022/07/19 02:52:41;;;;;;;3.08;2.65;;;15.50;93.50;;;;;;4994132;28;20049;-38
2022/07/19 02:55:08;;;;;;;4.13;2.80;;;15.40;93.30;;;;;;5006551;28;20038;-39
2022/07/19 02:57:33;;;;;;;2.70;2.50;;;15.40;93.80;;;;;;5005452;28;20044;-38
2022/07/19 02:59:59;;;;;;;4.90;2.80;;;15.30;94.20;;;;;;5003348;28;20471;-39
2022/07/19 03:02:24;;;;;;;3.03;2.50;;;15.30;94.30;;;;;;5002597;28;20033;-39
2022/07/19 03:04:50;;;;;;;4.25;2.55;;;15.30;94.60;;;;;;5005227;28;20022;-39
2022/07/19 03:07:16;;;;;;;3.10;2.65;;;15.30;94.90;;;;;;5005345;28;20940;-39
2022/07/19 03:09:42;;;;;;;4.80;3.20;;;15.30;94.70;;;;;;5002843;28;20064;-39
2022/07/19 03:12:07;;;;;;;4.40;2.83;;;15.30;94.10;;;;;;5003145;28;20029;-39
2022/07/19 03:14:33;;;;;;;5.25;2.80;;;15.30;94.00;;;;;;5003191;28;20128;-39
2022/07/19 03:16:59;;;;;;;2.88;2.60;;;15.30;94.80;;;;;;5004649;28;20037;-39
2022/07/19 03:19:26;;;;;;;3.88;2.70;;;15.30;94.80;;;;;;5003626;28;20117;-38
2022/07/19 03:21:52;;;;;;;3.10;2.72;;;15.20;95.80;;;;;;5002870;28;20437;-36
2022/07/19 03:24:18;;;;;;;5.13;3.08;;;15.10;96.20;;;;;;5003088;28;20391;-39
2022/07/19 03:26:44;;;;;;;3.30;2.92;;;15.00;97.00;;;;;;5004462;28;20034;-37
2022/07/19 03:29:09;;;;;;;6.00;3.85;;;14.80;97.70;;;;;;5001787;28;20025;-37
2022/07/19 03:31:35;;;;;;;4.05;3.13;;;14.80;97.90;;;;;;5005058;28;20053;-37
2022/07/19 03:34:01;;;;;;;3.17;2.88;;;14.70;98.30;;;;;;5004192;28;20427;-39
2022/07/19 03:36:26;;;;;;;2.97;2.60;;;14.70;97.30;;;;;;5019287;28;20042;-37
2022/07/19 03:38:52;;;;;;;3.38;2.92;;;14.70;96.60;;;;;;5003228;28;20040;-39
2022/07/19 03:41:18;;;;;;;4.25;2.30;;;14.80;96.80;;;;;;5003213;28;20108;-39
2022/07/19 03:43:43;;;;;;;3.92;2.50;;;14.80;96.40;;;;;;5002726;28;20034;-39
2022/07/19 03:46:09;;;;;;;4.22;2.83;;;14.70;99.80;;;;;;5002935;28;20092;-39
2022/07/19 03:48:35;;;;;;;4.50;3.35;;;14.70;97.20;;;;;;5006093;28;20038;-39
2022/07/19 03:51:00;;;;;;;7.13;3.05;;;14.60;99.90;;;;;;5002589;28;20041;-37
2022/07/19 03:53:26;;;;;;;4.18;3.03;;;14.60;99.90;;;;;;5002195;28;20503;-36
2022/07/19 03:55:51;;;;;;;6.50;3.63;;;14.50;99.90;;;;;;5003482;28;20038;-39
2022/07/19 03:58:17;;;;;;;5.30;2.85;;;14.30;99.90;;;;;;5000816;28;20406;-37
2022/07/19 04:00:45;;;;;;;6.07;4.63;;;14.50;99.90;;;;;;5001696;28;20038;-36
2022/07/19 04:03:11;;;;;;;3.35;3.10;;;14.60;99.50;;;;;;5001070;28;20479;-39
2022/07/19 04:05:37;;;;;;;3.70;3.40;;;14.70;99.90;;;;;;5002425;28;20030;-36
2022/07/19 04:08:03;;;;;;;5.03;2.90;;;14.70;99.70;;;;;;5004961;28;20537;-36
2022/07/19 04:10:29;;;;;;;5.78;4.00;;;14.90;99.30;;;;;;5003010;28;20042;-39
2022/07/19 04:12:55;;;;;;;3.38;3.08;;;14.90;98.30;;;;;;5001040;28;20029;-37
2022/07/19 04:15:21;;;;;;;3.35;2.80;;;15.00;98.30;;;;;;5001031;28;20096;-38
2022/07/19 04:17:46;;;;;;;3.42;3.03;;;15.10;97.30;;;;;;5002604;28;20049;-39
2022/07/19 04:20:12;;;;;;;3.42;2.85;;;15.10;96.70;;;;;;5001314;28;20030;-39
2022/07/19 04:22:38;;;;;;;3.03;2.80;;;15.00;96.70;;;;;;5002705;28;20501;-39
2022/07/19 04:25:04;;;;;;;16.35;3.22;;;15.00;96.30;;;;;;5004212;28;20505;-39
2022/07/19 04:27:31;;;;;;;5.25;3.10;;;15.00;96.50;;;;;;5003212;28;20528;-37
2022/07/19 04:29:58;;;;;;;4.65;3.28;;;15.10;96.60;;;;;;5001850;28;20026;-38
2022/07/19 04:32:23;;;;;;;3.88;3.45;;;15.10;97.30;;;;;;4999929;28;20103;-37
2022/07/19 04:34:49;;;;;;;3.83;3.10;;;15.10;97.60;;;;;;5004022;28;20037;-39
2022/07/19 04:37:15;;;;;;;3.35;2.97;;;15.10;97.10;;;;;;5002493;28;20041;-37
2022/07/19 04:39:41;;;;;;;3.72;3.38;;;15.10;97.10;;;;;;5002705;28;20058;-39
2022/07/19 04:42:07;;;;;;;3.53;3.22;;;15.30;98.10;;;;;;5004764;28;20036;-37
2022/07/19 04:44:33;;;;;;;4.25;3.45;;;15.30;98.20;;;;;;5002016;28;20025;-39
2022/07/19 04:46:59;;;;;;;5.72;3.03;;;15.40;98.40;;;;;;5003068;28;20116;-35
2022/07/19 04:49:25;;;;;;;4.18;3.50;;;15.50;99.10;;;;;;5003023;28;20040;-39
2022/07/19 04:51:50;;;;;;;4.50;3.55;;;15.60;99.00;;;;;;5002987;28;20033;-36
2022/07/19 04:54:16;;;;;;;4.82;3.45;;;15.70;98.60;;;;;;5001265;28;20427;-38
2022/07/19 04:56:42;;;;;;;4.53;3.80;;;15.70;99.90;;;;;;4999168;28;20144;-38
2022/07/19 04:59:07;;;;;;;4.55;3.40;;;15.80;99.90;;;;;;5002462;28;20096;-38
2022/07/19 05:01:34;;;;;;;4.45;3.33;;;15.90;99.90;;;;;;5002064;28;20095;-38
2022/07/19 05:03:59;;;;;;;4.25;3.83;;;16.00;99.90;;;;;;4999019;28;20040;-37
2022/07/19 05:06:25;;;;;;;6.85;5.03;;;16.00;99.90;;;;;;5003519;28;20093;-37
2022/07/19 05:08:52;;;;;;;4.38;3.95;;;16.10;99.90;;;;;;5005217;28;20030;-37
2022/07/19 05:11:19;;;;;;;4.18;3.55;;;16.30;99.90;;;;;;5001512;28;20042;-37
2022/07/19 05:13:45;;;;;;;6.13;3.75;;;16.40;99.90;;;;;;5003174;28;20057;-39
2022/07/19 05:16:10;;;;;;;6.97;4.13;;;16.50;99.90;;;;;;5018605;28;20058;-36
2022/07/19 05:18:36;;;;;;;5.10;3.25;;;16.70;99.90;;;;;;5001611;28;21007;-37
2022/07/19 05:21:01;;;;;;;3.83;3.53;;;16.80;99.90;;;;;;5000730;28;20034;-38
2022/07/19 05:23:27;;;;;;;5.53;3.45;;;17.00;99.40;;;;;;5001111;28;20402;-39
2022/07/19 05:25:52;;;;;;;4.00;3.60;;;17.20;99.40;;;;;;5000341;28;20108;-39
2022/07/19 05:28:18;;;;;;;4.93;3.67;;;17.30;98.70;;;;;;5003597;28;20521;-36
2022/07/19 05:30:44;;;;;;;4.15;3.83;;;17.40;99.90;;;;;;5001321;28;20124;-39
2022/07/19 05:33:10;;;;;;;4.43;3.80;;;17.40;99.90;;;;;;5000751;28;20033;-36
2022/07/19 05:35:35;;;;;;;5.53;4.07;;;17.50;99.90;;;;;;4999599;28;20030;-38
2022/07/19 05:38:01;;;;;;;5.43;4.50;;;17.70;99.90;;;;;;4999795;28;20041;-38
2022/07/19 05:40:26;;;;;;;6.00;4.68;;;17.70;99.90;;;;;;5004193;28;20739;-39
2022/07/19 05:42:52;;;;;;;4.93;4.45;;;17.90;99.90;;;;;;5002670;28;20037;-39
2022/07/19 05:45:18;;;;;;;11.25;4.70;;;18.10;99.90;;;;;;5003416;28;20057;-37
2022/07/19 05:47:43;;;;;;;7.18;4.55;;;18.20;99.90;;;;;;5003098;28;20029;-39
2022/07/19 05:50:09;;;;;;;5.63;4.47;;;18.50;99.90;;;;;;5000472;28;20770;-39
2022/07/19 05:52:35;;;;;;;9.35;4.60;;;18.70;98.20;;;;;;5001211;28;20133;-38
2022/07/19 05:55:00;;;;;;;4.90;4.43;;;18.80;95.80;;;;;;5003489;28;20034;-38
2022/07/19 05:57:26;;;;;;;8.35;4.50;;;18.90;97.40;;;;;;5002235;28;20034;-39
2022/07/19 05:59:53;;;;;;;7.55;4.30;;;19.10;95.90;;;;;;5004119;28;20029;-38
2022/07/19 06:02:19;;;;;;;6.90;4.00;;;19.20;95.10;;;;;;5001027;28;20046;-39
2022/07/19 06:04:45;;;;;;;5.15;4.30;;;19.50;95.40;;;;;;5002072;28;20026;-39
2022/07/19 06:07:11;;;;;;;4.57;4.03;;;19.70;93.50;;;;;;5003728;28;20042;-37
2022/07/19 06:09:36;;;;;;;6.07;4.30;;;20.00;92.40;;;;;;5004995;28;20022;-39
2022/07/19 06:12:02;;;;;;;5.68;4.50;;;20.30;90.80;;;;;;5000133;28;20034;-38
2022/07/19 06:14:28;;;;;;;11.60;4.15;;;20.50;90.10;;;;;;4997525;28;20038;-39
2022/07/19 06:16:53;;;;;;;10.05;4.63;;;20.50;87.40;;;;;;4997702;28;20037;-36
2022/07/19 06:19:19;;;;;;;5.03;4.00;;;20.60;89.50;;;;;;5015016;28;20544;-39
2022/07/19 06:21:45;;;;;;;7.18;4.00;;;20.70;85.80;;;;;;5006049;28;20022;-39
2022/07/19 06:24:11;;;;;;;7.70;4.40;;;20.70;88.10;;;;;;5002944;28;20033;-40
2022/07/19 06:26:37;;;;;;;9.93;4.20;;;20.70;86.80;;;;;;5008381;28;20487;-38
2022/07/19 06:29:03;;;;;;;6.72;3.58;;;20.80;84.90;;;;;;5004689;28;20490;-40
2022/07/19 06:31:29;;;;;;;6.05;3.20;;;21.00;84.30;;;;;;5011745;28;20068;-39
2022/07/19 06:33:54;;;;;;;3.00;2.70;;;21.40;83.50;;;;;;5008046;28;20060;-36
2022/07/19 06:36:20;;;;;;;3.28;2.97;;;21.60;70.50;;;;;;5009630;28;20053;-37
2022/07/19 06:38:47;;;;;;;4.97;2.70;;;21.90;73.20;;;;;;5009667;28;20025;-39
2022/07/19 06:41:14;;;;;;;27.33;4.82;;;22.20;66.80;;;;;;5006436;28;20041;-37
2022/07/19 06:43:40;;;;;;;6.18;3.00;;;22.30;62.80;;;;;;5004154;28;20141;-38
2022/07/19 06:46:06;;;;;;;6.07;2.80;;;22.40;60.90;;;;;;5025537;28;20083;-38
2022/07/19 06:48:32;;;;;;;3.40;2.53;;;22.50;60.60;;;;;;5009163;28;20030;-39
2022/07/19 06:50:57;;;;;;;3.15;2.65;;;22.80;61.50;;;;;;5008305;28;20045;-37
2022/07/19 06:53:23;;;;;;;3.70;2.50;;;22.80;56.60;;;;;;5004026;28;20075;-36
2022/07/19 06:55:49;;;;;;;3.20;2.65;;;22.80;54.50;;;;;;5005761;28;20026;-39
2022/07/19 06:58:14;;;;;;;3.20;2.50;;;22.90;55.40;;;;;;5007553;28;20482;-39
2022/07/19 07:00:41;;;;;;;4.13;2.60;;;23.10;54.40;;;;;;5007292;28;20491;-36
2022/07/19 07:03:06;;;;;;;3.05;2.47;;;23.20;55.90;;;;;;5009942;28;20026;-39
2022/07/19 07:05:32;;;;;;;5.22;2.67;;;23.40;53.00;;;;;;5010513;28;20387;-37
2022/07/19 07:07:58;;;;;;;5.63;2.17;;;23.60;52.10;;;;;;5010783;28;20115;-39
2022/07/19 07:10:24;;;;;;;2.28;2.08;;;23.70;51.20;;;;;;5010005;28;20487;-39
2022/07/19 07:12:49;;;;;;;2.75;2.40;;;23.70;52.10;;;;;;5008368;28;20037;-39
2022/07/19 07:15:15;;;;;;;4.03;2.40;;;24.00;50.90;;;;;;5008342;28;20030;-39
2022/07/19 07:17:41;;;;;;;4.75;2.30;;;24.00;51.90;;;;;;5009364;28;20501;-39
2022/07/19 07:20:08;;;;;;;3.97;2.53;;;24.10;50.20;;;;;;5005996;28;20562;-39
2022/07/19 07:22:35;;;;;;;2.97;2.37;;;24.10;50.30;;;;;;5009412;28;20034;-37
2022/07/19 07:25:01;;;;;;;2.63;2.42;;;24.20;51.60;;;;;;5007944;28;20280;-39
2022/07/19 07:27:26;;;;;;;3.65;2.40;;;24.30;49.80;;;;;;5009491;28;20034;-38
2022/07/19 07:29:52;;;;;;;2.50;2.30;;;24.40;49.40;;;;;;5006959;28;20029;-39
2022/07/19 07:32:18;;;;;;;2.95;2.20;;;24.50;48.80;;;;;;5008959;28;20049;-39
2022/07/19 07:34:44;;;;;;;2.72;2.53;;;24.50;50.40;;;;;;5010157;28;20542;-37
2022/07/19 07:37:10;;;;;;;9.57;2.88;;;24.60;48.60;;;;;;5008335;28;20056;-39
2022/07/19 07:39:36;;;;;;;2.67;2.30;;;24.60;47.20;;;;;;5010171;28;20026;-38
2022/07/19 07:42:03;;;;;;;2.17;2.05;;;24.60;46.60;;;;;;5025685;28;20431;-37
2022/07/19 07:44:29;;;;;;;3.17;2.38;;;24.80;47.40;;;;;;5008418;28;20044;-39
2022/07/19 07:46:55;;;;;;;2.65;2.28;;;24.90;45.90;;;;;;5009848;28;20023;-39
2022/07/19 07:49:21;;;;;;;3.20;2.30;;;25.10;48.00;;;;;;5010319;28;20550;-38
2022/07/19 07:51:47;;;;;;;2.50;2.30;;;25.30;45.90;;;;;;5008585;28;20026;-38
2022/07/19 07:54:13;;;;;;;5.75;2.30;;;25.40;45.60;;;;;;5009915;28;20060;-36
2022/07/19 07:56:38;;;;;;;2.25;2.10;;;25.40;44.50;;;;;;5009623;28;20038;-39
2022/07/19 07:59:04;;;;;;;3.00;1.85;;;25.40;43.90;;;;;;5009131;28;20032;-39
2022/07/19 08:01:30;;;;;;;3.85;2.08;;;25.40;42.80;;;;;;5008610;28;20045;-37
2022/07/19 08:03:56;;;;;;;3.47;2.22;;;25.70;42.90;;;;;;5007774;28;20033;-38
2022/07/19 08:06:22;;;;;;;3.35;2.20;;;26.00;45.00;;;;;;5007282;28;20021;-39
2022/07/19 08:08:47;;;;;;;3.83;2.17;;;26.10;41.40;;;;;;5007483;28;20116;-39
2022/07/19 08:11:13;;;;;;;4.88;2.20;;;26.10;41.90;;;;;;5009156;28;20104;-37
2022/07/19 08:13:39;;;;;;;2.65;2.08;;;26.30;42.40;;;;;;5009193;28;20038;-39
2022/07/19 08:16:05;;;;;;;3.03;2.25;;;26.50;41.90;;;;;;5008914;28;20034;-39
2022/07/19 08:18:31;;;;;;;3.57;2.00;;;26.60;41.50;;;;;;5022492;28;20026;-39
2022/07/19 08:20:57;;;;;;;2.50;2.00;;;26.80;39.70;;;;;;5009392;28;20368;-38
2022/07/19 08:23:23;;;;;;;2.20;2.00;;;26.80;39.30;;;;;;5004234;28;20037;-39
2022/07/19 08:25:48;;;;;;;2.60;2.40;;;27.10;40.70;;;;;;5007919;28;20022;-38
2022/07/19 08:28:14;;;;;;;2.78;1.80;;;27.10;41.10;;;;;;5007267;28;20030;-36
2022/07/19 08:30:40;;;;;;;2.20;1.90;;;27.30;37.80;;;;;;5007327;28;20041;-38
2022/07/19 08:33:08;;;;;;;2.22;1.95;;;27.30;37.80;;;;;;5007945;28;20029;-39
2022/07/19 08:35:34;;;;;;;2.10;1.83;;;27.40;36.50;;;;;;5004943;28;20454;-39
2022/07/19 08:38:00;;;;;;;4.53;1.90;;;27.50;36.60;;;;;;5006820;28;20080;-39
2022/07/19 08:40:26;;;;;;;4.45;1.92;;;27.30;35.50;;;;;;5006451;28;20033;-40
2022/07/19 08:42:53;;;;;;;3.92;1.73;;;27.30;35.80;;;;;;5007220;28;20031;-39
2022/07/19 08:45:22;;;;;;;2.43;1.80;;;27.30;36.20;;;;;;5003977;28;20048;-39
2022/07/19 08:47:48;;;;;;;2.22;1.80;;;27.60;34.70;;;;;;5004955;28;20034;-39
2022/07/19 08:50:14;;;;;;;1.92;1.42;;;27.80;35.10;;;;;;5009041;28;20030;-39
2022/07/19 08:52:40;;;;;;;3.33;1.67;;;28.00;34.00;;;;;;5005618;28;20081;-39
2022/07/19 08:55:07;;;;;;;2.00;1.80;;;28.20;33.30;;;;;;5005984;28;20033;-39
2022/07/19 09:00:17;;;;;;;2.78;1.95;;;28.10;33.40;;;;;;5007632;28;20095;-38
2022/07/19 09:02:52;;;;;;;3.70;2.00;;;28.50;36.20;;;;;;5021045;28;20046;-39
2022/07/19 09:05:17;;;;;;;2.95;1.80;;;28.50;33.50;;;;;;5007095;28;20494;-39
2022/07/19 09:08:11;;;;;;;2.60;1.70;;;28.50;32.70;;;;;;5007807;28;20032;-38
2022/07/19 09:10:40;;;;;;;5.20;1.80;;;28.60;32.50;;;;;;5006479;28;20515;-39
2022/07/19 09:13:09;;;;;;;1.88;1.73;;;28.60;31.50;;;;;;5007835;28;20088;-39
2022/07/19 09:15:51;;;;;;;2.58;1.98;;;28.70;30.80;;;;;;5007435;28;20026;-37
2022/07/19 09:18:21;;;;;;;25.45;3.47;;;28.60;31.30;;;;;;5007263;28;20407;-39
2022/07/19 09:20:52;;;;;;;34.88;3.53;;;28.50;31.50;;;;;;5008197;28;20057;-39
2022/07/19 09:23:18;;;;;;;4.10;1.75;;;28.50;30.50;;;;;;5006929;28;20109;-39
2022/07/19 09:25:48;;;;;;;6.82;1.70;;;28.50;32.60;;;;;;5004939;28;20038;-36
2022/07/19 09:28:15;;;;;;;3.50;1.65;;;28.70;30.70;;;;;;5005876;28;20045;-37
2022/07/19 09:30:45;;;;;;;2.00;1.55;;;28.80;31.40;;;;;;5003661;28;20034;-39
2022/07/19 09:33:14;;;;;;;5.93;1.73;;;29.20;30.30;;;;;;5007494;28;20109;-37
2022/07/19 09:36:10;;;;;;;2.88;1.50;;;29.20;30.10;;;;;;5006919;28;20029;-38
2022/07/19 09:38:36;;;;;;;1.90;1.70;;;28.80;30.30;;;;;;5006662;28;20407;-39
2022/07/19 09:41:13;;;;;;;108.38;8.80;;;28.90;29.80;;;;;;5006443;28;20138;-39
2022/07/19 09:43:50;;;;;;;2.60;1.73;;;28.90;29.20;;;;;;5005535;28;20091;-35
2022/07/19 09:46:30;;;;;;;7.30;1.50;;;29.00;29.70;;;;;;5009340;28;20407;-39
2022/07/19 09:49:06;;;;;;;2.63;1.70;;;29.20;29.30;;;;;;5008466;28;20095;-36
2022/07/19 09:51:37;;;;;;;2.45;1.55;;;29.30;29.20;;;;;;5005760;28;20482;-40
2022/07/19 09:54:04;;;;;;;2.00;1.50;;;29.30;28.30;;;;;;5006522;28;20112;-39
2022/07/19 09:56:31;;;;;;;6.70;1.52;;;29.20;27.80;;;;;;5008239;28;20040;-37
2022/07/19 09:58:58;;;;;;;3.83;1.70;;;29.30;29.60;;;;;;5008259;28;20487;-39
2022/07/19 10:01:24;;;;;;;1.95;1.75;;;29.50;29.10;;;;;;5005721;28;20066;-39
2022/07/19 10:03:54;;;;;;;204.27;17.83;;;29.40;28.70;;;;;;5010819;28;20101;-40
2022/07/19 10:06:20;;;;;;;6.30;2.10;;;29.40;28.40;;;;;;5007807;28;20713;-39
2022/07/19 10:08:46;;;;;;;3.30;1.70;;;29.60;28.90;;;;;;5008404;28;20037;-37
2022/07/19 10:11:12;;;;;;;2.55;1.80;;;30.00;29.60;;;;;;5009359;28;20038;-39
2022/07/19 10:13:39;;;;;;;4.43;1.80;;;30.10;28.10;;;;;;5010388;28;20124;-39
2022/07/19 10:16:10;;;;;;;4.57;1.70;;;30.00;28.10;;;;;;5009606;28;20487;-37
2022/07/19 10:18:44;;;;;;;13.20;2.63;;;29.80;28.40;;;;;;5011598;28;20041;-37
2022/07/19 10:21:10;;;;;;;5.80;1.80;;;29.90;28.40;;;;;;5009292;28;20041;-39
2022/07/19 10:23:36;;;;;;;2.70;1.90;;;30.00;28.80;;;;;;5007885;28;20034;-38
2022/07/19 10:26:02;;;;;;;2.53;1.70;;;30.00;28.70;;;;;;5010620;28;20026;-39
2022/07/19 10:28:37;;;;;;;2.00;1.80;;;30.00;27.90;;;;;;4992079;28;21134;-39
2022/07/19 10:31:23;;;;;;;1.80;1.70;;;30.20;28.60;;;;;;5010247;28;20076;-37
2022/07/19 10:33:59;;;;;;;3.20;1.67;;;30.20;27.50;;;;;;5010057;28;20120;-39
2022/07/19 10:36:51;;;;;;;54.95;4.45;;;30.10;27.70;;;;;;5009876;28;20034;-39
2022/07/19 10:39:20;;;;;;;5.50;2.08;;;30.00;27.50;;;;;;5001650;28;20050;-38
2022/07/19 10:42:04;;;;;;;3.78;1.80;;;30.50;28.20;;;;;;5011438;28;20080;-39
2022/07/19 10:44:29;;;;;;;1.98;1.77;;;30.60;27.90;;;;;;5008048;28;20028;-38
2022/07/19 10:46:55;;;;;;;3.78;1.90;;;30.60;26.80;;;;;;5008289;28;20079;-37
2022/07/19 10:49:43;;;;;;;7.32;2.05;;;30.80;26.90;;;;;;5008314;28;20111;-38
2022/07/19 10:52:27;;;;;;;4.55;2.10;;;30.90;27.00;;;;;;5007939;28;20038;-38
2022/07/19 10:55:20;;;;;;;4.20;1.83;;;30.80;27.60;;;;;;5006638;28;20790;-39
2022/07/19 10:58:05;;;;;;;3.55;1.77;;;30.80;26.80;;;;;;5011294;28;20033;-38
2022/07/19 11:00:44;;;;;;;3.30;2.00;;;30.70;27.30;;;;;;4997846;28;20057;-38
2022/07/19 11:03:25;;;;;;;8.48;2.03;;;30.60;27.60;;;;;;5007419;28;20053;-39
2022/07/19 11:05:58;;;;;;;6.95;2.00;;;30.90;26.80;;;;;;5009299;28;20026;-40
2022/07/19 11:08:56;;;;;;;4.22;1.70;;;30.80;25.70;;;;;;5006192;28;20121;-38
2022/07/19 11:11:24;;;;;;;2.30;2.10;;;30.70;26.20;;;;;;5006050;28;20444;-37
2022/07/19 11:13:55;;;;;;;32.60;3.97;;;30.80;28.50;;;;;;5007452;28;20084;-37
2022/07/19 11:16:24;;;;;;;2.22;1.70;;;30.90;27.90;;;;;;5011631;28;20030;-39
2022/07/19 11:18:49;;;;;;;4.13;2.05;;;31.10;28.20;;;;;;5007896;28;20053;-38
2022/07/19 11:21:15;;;;;;;1.90;1.80;;;30.90;27.30;;;;;;5008455;28;20057;-38
2022/07/19 11:23:42;;;;;;;3.25;1.77;;;30.80;27.10;;;;;;5007297;28;20049;-36
2022/07/19 11:26:12;;;;;;;3.40;1.90;;;30.70;28.00;;;;;;5009917;28;20037;-38
2022/07/19 11:28:41;;;;;;;8.32;2.05;;;30.90;27.50;;;;;;5008523;28;20034;-37
2022/07/19 11:31:18;;;;;;;5.88;1.77;;;30.90;27.00;;;;;;5009105;28;20042;-39
2022/07/19 11:33:46;;;;;;;3.45;1.83;;;30.90;27.90;;;;;;5005970;28;20515;-39
2022/07/19 11:36:15;;;;;;;2.47;1.83;;;31.20;28.80;;;;;;5007648;28;20087;-39
2022/07/19 11:38:46;;;;;;;2.28;1.80;;;31.40;27.30;;;;;;5010391;28;20034;-37
2022/07/19 11:41:19;;;;;;;4.80;1.92;;;31.30;27.00;;;;;;5009955;28;20491;-39
2022/07/19 11:43:55;;;;;;;2.05;1.85;;;31.30;27.70;;;;;;5006650;28;20065;-38
2022/07/19 11:46:22;;;;;;;4.43;1.90;;;31.30;26.90;;;;;;5010209;28;20177;-39
2022/07/19 11:48:49;;;;;;;2.10;1.80;;;31.60;26.40;;;;;;5006959;28;20030;-38
2022/07/19 11:51:16;;;;;;;2.95;1.85;;;31.30;26.50;;;;;;5010324;28;20037;-38
2022/07/19 11:53:42;;;;;;;4.47;2.13;;;31.20;27.70;;;;;;5009593;28;20038;-39
2022/07/19 11:56:22;;;;;;;1.73;1.63;;;31.50;26.70;;;;;;5008489;28;20045;-39
2022/07/19 11:58:50;;;;;;;4.10;2.42;;;31.40;26.30;;;;;;5009305;28;20038;-39
2022/07/19 12:01:25;;;;;;;4.95;2.05;;;31.40;26.70;;;;;;5006968;28;20727;-39
2022/07/19 12:04:04;;;;;;;3.63;1.98;;;31.40;26.60;;;;;;5010012;28;20541;-39
2022/07/19 12:06:37;;;;;;;4.20;1.85;;;31.50;27.80;;;;;;5009549;28;20022;-39
2022/07/19 12:09:08;;;;;;;12.20;2.47;;;31.60;25.40;;;;;;5008913;28;20483;-38
2022/07/19 12:11:43;;;;;;;3.65;2.10;;;31.60;24.60;;;;;;5004909;28;20030;-39
2022/07/19 12:14:26;;;;;;;5.90;3.25;;;31.50;25.70;;;;;;5008830;28;20060;-38
2022/07/19 12:17:15;;;;;;;3.60;2.20;;;31.50;25.40;;;;;;5007398;28;20036;-36
2022/07/19 12:19:52;;;;;;;3.40;2.30;;;31.50;26.00;;;;;;5004250;28;20475;-37
2022/07/19 12:22:35;;;;;;;5.00;2.20;;;31.30;24.80;;;;;;5007502;28;20037;-38
2022/07/19 12:25:03;;;;;;;4.70;2.63;;;31.40;25.30;;;;;;5006845;28;20029;-39
2022/07/19 12:27:29;;;;;;;;;;;31.50;24.10;;;;;;5009131;28;20933;-39
2022/07/19 12:29:56;;;;;;;4.07;2.58;;;31.40;25.40;;;;;;5010770;28;19909;-38
2022/07/19 12:32:27;;;;;;;2.83;2.60;;;31.70;24.20;;;;;;5008409;28;20520;-39
2022/07/19 12:34:57;;;;;;;3.50;2.60;;;31.60;25.30;;;;;;5009645;28;20498;-39
2022/07/19 12:37:29;;;;;;;5.50;2.60;;;31.70;24.80;;;;;;5009328;28;20061;-39
2022/07/19 12:40:06;;;;;;;4.45;2.50;;;31.50;23.60;;;;;;5008317;28;20026;-39
2022/07/19 12:42:43;;;;;;;6.75;2.95;;;31.60;24.40;;;;;;5006668;28;20029;-37
2022/07/19 12:45:20;;;;;;;4.35;2.70;;;31.50;24.20;;;;;;5007125;28;20093;-38
2022/07/19 12:47:47;;;;;;;7.47;2.63;;;31.60;25.10;;;;;;5008649;28;20033;-40
2022/07/19 12:50:25;;;;;;;4.53;3.00;;;31.70;25.30;;;;;;5007032;28;20033;-39
2022/07/19 12:52:53;;;;;;;4.80;3.00;;;32.00;24.70;;;;;;5004830;28;20133;-39
2022/07/19 12:55:21;;;;;;;5.38;3.03;;;32.00;24.50;;;;;;5006796;28;20041;-38
2022/07/19 12:57:47;;;;;;;5.13;3.20;;;32.00;24.00;;;;;;5008067;28;20048;-39